createdAt,value
2019-02-23T00:01:04.144Z,22.50
2019-02-23T00:03:31.665Z,19.27
2019-02-23T00:05:59.073Z,23.43
2019-02-23T00:08:26.585Z,21.87
2019-02-23T00:10:53.948Z,21.33
2019-02-23T00:13:21.765Z,21.70
2019-02-23T00:15:49.195Z,18.57
2019-02-23T00:18:16.546Z,22.23
2019-02-23T00:20:43.911Z,24.53
2019-02-23T00:23:11.325Z,23.80
2019-02-23T00:25:38.751Z,22.77
2019-02-23T00:28:06.157Z,23.70
2019-02-23T00:30:33.506Z,25.10
2019-02-23T00:33:00.894Z,23.27
2019-02-23T00:35:28.266Z,25.67
2019-02-23T00:37:55.720Z,22.70
2019-02-23T00:40:23.090Z,23.13
2019-02-23T00:42:50.528Z,23.00
2019-02-23T00:45:17.885Z,23.87
2019-02-23T00:47:45.330Z,21.90
2019-02-23T00:50:12.700Z,22.73
2019-02-23T00:52:40.136Z,24.17
2019-02-23T00:55:07.875Z,22.90
2019-02-23T00:57:35.283Z,22.53
2019-02-23T01:00:02.636Z,22.93
2019-02-23T01:02:30.181Z,24.07
2019-02-23T01:04:57.553Z,23.63
2019-02-23T01:07:26.906Z,23.30
2019-02-23T01:09:54.270Z,23.13
2019-02-23T01:12:21.817Z,20.57
2019-02-23T01:14:49.185Z,22.97
2019-02-23T01:17:16.616Z,23.87
2019-02-23T01:19:47.747Z,23.47
2019-02-23T01:22:13.285Z,24.03
2019-02-23T01:24:40.630Z,21.33
2019-02-23T01:27:08.105Z,21.00
2019-02-23T01:29:35.476Z,19.47
2019-02-23T01:32:02.870Z,24.90
2019-02-23T01:34:30.256Z,21.83
2019-02-23T01:36:57.590Z,21.30
2019-02-23T01:39:25.020Z,20.60
2019-02-23T01:41:52.390Z,21.07
2019-02-23T01:44:20.108Z,19.30
2019-02-23T01:46:47.470Z,22.70
2019-02-23T01:49:14.856Z,24.43
2019-02-23T01:51:42.210Z,20.63
2019-02-23T01:54:09.620Z,20.53
2019-02-23T01:56:36.990Z,21.57
2019-02-23T01:59:04.380Z,22.73
2019-02-23T02:01:31.724Z,23.00
2019-02-23T02:03:59.133Z,22.30
2019-02-23T02:06:26.484Z,22.43
2019-02-23T02:08:53.986Z,21.00
2019-02-23T02:11:22.076Z,22.17
2019-02-23T02:13:49.503Z,21.00
2019-02-23T02:16:16.880Z,22.43
2019-02-23T02:18:44.290Z,23.27
2019-02-23T02:21:11.646Z,24.17
2019-02-23T02:23:39.075Z,23.07
2019-02-23T02:26:06.485Z,21.00
2019-02-23T02:28:33.956Z,23.90
2019-02-23T02:31:01.335Z,22.60
2019-02-23T02:33:28.725Z,25.80
2019-02-23T02:35:56.150Z,22.97
2019-02-23T02:38:23.868Z,22.60
2019-02-23T02:40:51.233Z,23.00
2019-02-23T02:43:18.628Z,23.90
2019-02-23T02:45:46.014Z,24.07
2019-02-23T02:48:13.406Z,19.77
2019-02-23T02:50:40.801Z,21.83
2019-02-23T02:53:08.175Z,24.13
2019-02-23T02:55:35.621Z,22.60
2019-02-23T02:58:02.956Z,22.47
2019-02-23T03:00:30.333Z,19.70
2019-02-23T03:02:57.678Z,21.00
2019-02-23T03:05:25.067Z,23.63
2019-02-23T03:07:52.447Z,24.30
2019-02-23T03:10:19.960Z,20.40
2019-02-23T03:12:47.326Z,21.30
2019-02-23T03:15:14.728Z,22.10
2019-02-23T03:17:42.087Z,22.47
2019-02-23T03:20:09.511Z,21.60
2019-02-23T03:22:36.901Z,21.53
2019-02-23T03:25:04.715Z,19.27
2019-02-23T03:27:32.077Z,20.73
2019-02-23T03:29:59.465Z,21.07
2019-02-23T03:32:26.853Z,20.27
2019-02-23T03:34:54.282Z,23.03
2019-02-23T03:37:21.652Z,22.67
2019-02-23T03:39:49.047Z,24.53
2019-02-23T03:42:16.787Z,21.80
2019-02-23T03:44:44.218Z,24.57
2019-02-23T03:47:11.585Z,22.83
2019-02-23T03:49:39.033Z,21.80
2019-02-23T03:52:06.385Z,21.67
2019-02-23T03:54:34.059Z,22.63
2019-02-23T03:57:01.475Z,21.43
2019-02-23T03:59:28.891Z,21.40
2019-02-23T04:01:56.276Z,24.07
2019-02-23T04:04:23.630Z,24.77
2019-02-23T04:06:51.025Z,23.13
2019-02-23T04:09:18.373Z,21.33
2019-02-23T04:11:45.775Z,24.10
2019-02-23T04:14:13.153Z,22.50
2019-02-23T04:16:40.601Z,21.50
2019-02-23T04:19:07.990Z,23.37
2019-02-23T04:21:35.355Z,22.57
2019-02-23T04:24:02.705Z,22.97
2019-02-23T04:26:30.181Z,21.97
2019-02-23T04:28:57.530Z,22.83
2019-02-23T04:31:25.083Z,24.70
2019-02-23T04:33:52.514Z,23.93
2019-02-23T04:36:19.928Z,23.80
2019-02-23T04:38:47.689Z,21.13
2019-02-23T04:41:15.116Z,22.07
2019-02-23T04:43:44.210Z,26.23
2019-02-23T04:46:11.854Z,25.80
2019-02-23T04:48:39.205Z,25.27
2019-02-23T04:51:14.362Z,24.03
2019-02-23T04:53:35.915Z,25.57
2019-02-23T04:56:03.340Z,30.60
2019-02-23T04:58:30.707Z,24.23
2019-02-23T05:00:58.105Z,27.27
2019-02-23T05:03:25.477Z,25.50
2019-02-23T05:05:52.921Z,25.97
2019-02-23T05:08:20.274Z,24.60
2019-02-23T05:10:48.145Z,24.63
2019-02-23T05:13:15.865Z,26.87
2019-02-23T05:15:43.307Z,27.37
2019-02-23T05:18:10.660Z,27.13
2019-02-23T05:20:38.096Z,27.53
2019-02-23T05:23:05.570Z,23.43
2019-02-23T05:25:32.966Z,26.33
2019-02-23T05:28:00.417Z,24.20
2019-02-23T05:30:27.763Z,25.90
2019-02-23T05:32:55.184Z,28.20
2019-02-23T05:35:22.613Z,28.40
2019-02-23T05:37:50.042Z,26.17
2019-02-23T05:40:17.398Z,24.53
2019-02-23T05:42:44.815Z,28.53
2019-02-23T05:45:12.167Z,26.93
2019-02-23T05:47:39.565Z,27.43
2019-02-23T05:50:07.015Z,28.03
2019-02-23T05:52:34.410Z,27.07
2019-02-23T05:55:01.752Z,30.03
2019-02-23T05:57:29.182Z,27.73
2019-02-23T05:59:56.515Z,27.30
2019-02-23T06:02:23.920Z,27.83
2019-02-23T06:04:51.271Z,32.83
2019-02-23T06:07:18.670Z,27.00
2019-02-23T06:09:46.081Z,30.50
2019-02-23T06:12:13.481Z,28.03
2019-02-23T06:14:40.840Z,28.43
2019-02-23T06:17:08.233Z,29.03
2019-02-23T06:19:35.577Z,29.93
2019-02-23T06:22:03.017Z,28.47
2019-02-23T06:24:30.557Z,29.13
2019-02-23T06:26:58.011Z,32.63
2019-02-23T06:29:25.366Z,28.93
2019-02-23T06:31:52.788Z,29.23
2019-02-23T06:34:20.132Z,32.07
2019-02-23T06:36:47.570Z,29.93
2019-02-23T06:39:14.945Z,35.87
2019-02-23T06:41:42.371Z,29.57
2019-02-23T06:44:09.725Z,28.07
2019-02-23T06:46:37.475Z,29.40
2019-02-23T06:49:04.936Z,33.77
2019-02-23T06:51:32.285Z,28.80
2019-02-23T06:53:59.695Z,32.00
2019-02-23T06:56:27.047Z,32.30
2019-02-23T06:58:54.600Z,33.20
2019-02-23T07:01:22.170Z,39.53
2019-02-23T07:03:49.827Z,35.27
2019-02-23T07:06:17.306Z,32.10
2019-02-23T07:08:45.189Z,36.20
2019-02-23T07:11:12.620Z,38.10
2019-02-23T07:13:40.145Z,37.17
2019-02-23T07:16:07.789Z,34.17
2019-02-23T07:18:35.345Z,34.23
2019-02-23T07:21:02.865Z,32.60
2019-02-23T07:23:30.568Z,32.10
2019-02-23T07:25:58.090Z,29.87
2019-02-23T07:28:25.807Z,32.03
2019-02-23T07:30:53.155Z,31.40
2019-02-23T07:33:32.340Z,36.07
2019-02-23T07:35:49.845Z,33.90
2019-02-23T07:38:17.255Z,35.00
2019-02-23T07:40:44.625Z,35.30
2019-02-23T07:43:12.081Z,31.70
2019-02-23T07:45:39.446Z,35.10
2019-02-23T07:48:06.840Z,34.20
2019-02-23T07:50:34.365Z,34.40
2019-02-23T07:53:01.851Z,31.90
2019-02-23T07:55:29.406Z,33.90
2019-02-23T07:57:57.020Z,35.00
2019-02-23T08:00:24.695Z,33.87
2019-02-23T08:02:52.166Z,32.73
2019-02-23T08:05:19.520Z,30.83
2019-02-23T08:07:46.930Z,32.93
2019-02-23T08:10:14.421Z,30.33
2019-02-23T08:12:41.892Z,36.53
2019-02-23T08:15:09.561Z,31.53
2019-02-23T08:17:37.150Z,31.03
2019-02-23T08:20:04.716Z,32.37
2019-02-23T08:22:37.304Z,31.57
2019-02-23T08:25:01.428Z,34.80
2019-02-23T08:27:28.886Z,30.77
2019-02-23T08:29:56.315Z,32.07
2019-02-23T08:32:23.690Z,33.97
2019-02-23T08:34:51.125Z,30.40
2019-02-23T08:37:18.500Z,35.33
2019-02-23T08:39:45.905Z,35.10
2019-02-23T08:42:13.286Z,34.33
2019-02-23T08:44:40.674Z,33.03
2019-02-23T08:47:08.010Z,34.07
2019-02-23T08:49:35.426Z,32.97
2019-02-23T08:52:03.104Z,35.77
2019-02-23T08:54:30.526Z,37.50
2019-02-23T08:56:57.895Z,36.13
2019-02-23T08:59:25.351Z,38.90
2019-02-23T09:01:52.716Z,35.87
2019-02-23T09:04:20.891Z,31.60
2019-02-23T09:06:48.352Z,32.50
2019-02-23T09:09:15.781Z,32.00
2019-02-23T09:11:43.140Z,35.77
2019-02-23T09:14:10.601Z,37.10
2019-02-23T09:16:37.986Z,33.87
2019-02-23T09:19:05.425Z,32.87
2019-02-23T09:21:32.806Z,35.00
2019-02-23T09:24:00.316Z,33.23
2019-02-23T09:26:28.016Z,35.60
2019-02-23T09:28:55.455Z,35.50
2019-02-23T09:31:22.816Z,35.73
2019-02-23T09:33:50.230Z,31.87
2019-02-23T09:36:17.606Z,32.90
2019-02-23T09:38:45.170Z,34.93
2019-02-23T09:41:18.223Z,34.93
2019-02-23T09:43:45.726Z,34.90
2019-02-23T09:46:13.135Z,32.57
2019-02-23T09:48:40.615Z,35.83
2019-02-23T09:51:08.010Z,31.43
2019-02-23T09:53:35.381Z,36.17
2019-02-23T09:56:02.811Z,32.80
2019-02-23T09:58:31.219Z,32.80
2019-02-23T10:00:58.906Z,34.93
2019-02-23T10:03:26.320Z,37.30
2019-02-23T10:05:53.726Z,34.13
2019-02-23T10:08:21.100Z,39.83
2019-02-23T10:10:48.526Z,29.13
2019-02-23T10:13:15.885Z,33.37
2019-02-23T10:15:43.301Z,28.37
2019-02-23T10:18:10.660Z,35.33
2019-02-23T10:20:38.076Z,30.47
2019-02-23T10:23:05.430Z,30.27
2019-02-23T10:25:32.900Z,29.30
2019-02-23T10:28:00.291Z,35.10
2019-02-23T10:30:27.794Z,29.13
2019-02-23T10:32:55.145Z,27.43
2019-02-23T10:35:22.599Z,26.20
2019-02-23T10:37:50.006Z,22.23
2019-02-23T10:40:17.440Z,21.67
2019-02-23T10:42:44.946Z,21.83
2019-02-23T10:45:12.505Z,20.73
2019-02-23T10:47:39.842Z,19.00
2019-02-23T10:50:08.076Z,18.03
2019-02-23T10:52:35.490Z,19.33
2019-02-23T10:55:03.114Z,19.77
2019-02-23T10:57:30.646Z,17.70
2019-02-23T10:59:58.185Z,16.00
2019-02-23T11:02:25.605Z,18.13
2019-02-23T11:04:53.096Z,17.43
2019-02-23T11:07:20.690Z,15.90
2019-02-23T11:09:48.106Z,17.63
2019-02-23T11:12:15.556Z,17.20
2019-02-23T11:14:43.029Z,17.63
2019-02-23T11:17:10.495Z,17.13
2019-02-23T11:19:37.861Z,15.77
2019-02-23T11:22:05.270Z,13.80
2019-02-23T11:24:32.648Z,14.57
2019-02-23T11:27:00.340Z,15.83
2019-02-23T11:29:30.249Z,14.80
2019-02-23T11:31:57.060Z,22.20
2019-02-23T11:34:24.519Z,25.20
2019-02-23T11:36:51.992Z,25.57
2019-02-23T11:39:21.710Z,25.80
2019-02-23T11:41:49.146Z,21.70
2019-02-23T11:44:16.504Z,23.70
2019-02-23T11:46:59.289Z,22.77
2019-02-23T11:49:13.235Z,27.43
2019-02-23T11:51:40.836Z,25.53
2019-02-23T11:54:08.561Z,23.17
2019-02-23T11:56:36.071Z,22.40
2019-02-23T11:59:03.463Z,25.63
2019-02-23T12:01:30.975Z,22.50
2019-02-23T12:03:58.525Z,24.07
2019-02-23T12:06:25.955Z,23.13
2019-02-23T12:08:53.466Z,25.13
2019-02-23T12:11:21.195Z,24.77
2019-02-23T12:13:48.610Z,23.90
2019-02-23T12:16:16.115Z,24.10
2019-02-23T12:18:43.585Z,25.77
2019-02-23T12:21:11.265Z,22.87
2019-02-23T12:23:38.800Z,20.10
2019-02-23T12:26:06.425Z,20.63
2019-02-23T12:28:34.095Z,23.37
2019-02-23T12:31:01.671Z,23.37
2019-02-23T12:33:29.318Z,23.57
2019-02-23T12:35:56.830Z,20.03
2019-02-23T12:38:24.315Z,19.70
2019-02-23T12:40:51.989Z,22.63
2019-02-23T12:43:19.602Z,20.27
2019-02-23T12:45:47.156Z,19.70
2019-02-23T12:48:14.911Z,21.67
2019-02-23T12:50:47.255Z,20.47
2019-02-23T12:53:32.818Z,17.33
2019-02-23T12:56:00.756Z,18.07
2019-02-23T12:58:33.705Z,21.77
2019-02-23T13:01:01.591Z,18.63
2019-02-23T13:03:29.412Z,18.20
2019-02-23T13:05:57.059Z,18.50
2019-02-23T13:08:31.661Z,16.73
2019-02-23T13:11:02.950Z,19.10
2019-02-23T13:13:51.221Z,19.73
2019-02-23T13:17:00.789Z,21.93
2019-02-23T13:20:45.786Z,19.07
2019-02-23T13:24:28.138Z,18.93
2019-02-23T13:27:05.677Z,20.40
2019-02-23T13:30:08.116Z,17.37
2019-02-23T13:33:25.279Z,21.07
2019-02-23T13:36:21.596Z,21.00
2019-02-23T13:43:02.831Z,21.30
2019-02-23T13:46:05.261Z,17.83
2019-02-23T13:49:14.971Z,19.10
2019-02-23T13:52:18.982Z,19.93
2019-02-23T13:55:29.962Z,22.10
2019-02-23T13:58:25.837Z,20.30
2019-02-23T14:01:46.934Z,19.87
2019-02-23T14:04:44.642Z,21.53
2019-02-23T14:07:54.161Z,17.47
2019-02-23T14:10:57.027Z,19.17
2019-02-23T14:13:48.881Z,18.87
2019-02-23T14:16:27.367Z,18.57
2019-02-23T14:19:46.197Z,20.77
2019-02-23T14:22:23.921Z,21.73
2019-02-23T14:25:35.802Z,20.27
2019-02-23T14:28:37.991Z,18.10
2019-02-23T14:31:29.716Z,20.80
2019-02-23T14:34:32.337Z,19.63
2019-02-23T14:38:05.644Z,17.97
2019-02-23T14:41:23.361Z,17.43
2019-02-23T14:44:09.624Z,17.63
2019-02-23T14:47:33.675Z,14.67
2019-02-23T14:50:47.418Z,17.00
2019-02-23T14:53:24.854Z,16.53
2019-02-23T14:56:28.063Z,17.43
2019-02-23T14:59:25.531Z,16.60
2019-02-23T15:02:22.843Z,17.57
2019-02-23T15:05:36.501Z,16.57
2019-02-23T15:08:44.327Z,16.63
2019-02-23T15:12:08.734Z,17.27
2019-02-23T15:15:41.116Z,16.60
2019-02-23T15:18:55.865Z,17.70
2019-02-23T15:21:41.876Z,16.00
2019-02-23T15:24:54.393Z,17.40
2019-02-23T15:28:26.415Z,17.57
2019-02-23T15:31:21.086Z,16.97
2019-02-23T15:34:12.061Z,17.10
2019-02-23T15:37:04.956Z,15.90
2019-02-23T15:40:07.639Z,19.57
2019-02-23T15:43:19.742Z,14.57
2019-02-23T15:46:08.856Z,18.00
2019-02-23T15:49:30.204Z,17.70
2019-02-23T15:51:58.829Z,16.57
2019-02-23T15:54:29.092Z,14.70
2019-02-23T16:36:54.116Z,13.97
2019-02-23T16:39:21.936Z,14.00
2019-02-23T16:41:49.936Z,15.27
2019-02-23T17:15:33.226Z,18.73
2019-02-23T17:18:01.066Z,16.03
2019-02-23T17:20:28.982Z,16.40
2019-02-23T17:29:55.671Z,20.77
2019-02-23T17:40:22.456Z,16.53
2019-02-23T17:50:39.235Z,14.73
2019-02-23T17:50:40.245Z,19.53
2019-02-23T18:01:34.519Z,15.70
2019-02-23T18:04:02.328Z,14.93
2019-02-23T18:06:31.065Z,16.80
2019-02-23T18:08:59.058Z,15.73
2019-02-23T18:11:26.941Z,15.10
2019-02-23T18:13:55.556Z,14.60
2019-02-23T18:16:23.386Z,17.77
2019-02-23T18:18:51.416Z,19.50
2019-02-23T18:21:19.316Z,16.17
2019-02-23T18:23:47.330Z,17.63
2019-02-23T18:26:20.974Z,15.40
2019-02-23T18:28:45.237Z,17.03
2019-02-23T18:31:13.030Z,14.47
2019-02-23T18:33:40.806Z,15.23
2019-02-23T18:36:08.576Z,15.87
2019-02-23T18:38:36.541Z,16.80
2019-02-23T18:41:04.416Z,14.97
2019-02-23T18:48:34.700Z,16.73
2019-02-23T18:58:29.140Z,17.43
2019-02-23T19:04:38.752Z,17.67
2019-02-23T19:11:49.856Z,15.13
2019-02-23T19:15:03.395Z,19.70
2019-02-23T19:18:43.177Z,16.67
2019-02-23T19:21:11.041Z,18.60
2019-02-23T19:24:53.767Z,21.63
2019-02-23T19:27:28.486Z,17.03
2019-02-23T19:30:25.405Z,16.33
2019-02-23T19:33:33.806Z,19.40
2019-02-23T20:02:04.005Z,25.20
2019-02-23T20:25:14.600Z,20.93
2019-02-23T20:27:42.521Z,22.53
2019-02-23T20:30:10.601Z,20.33
2019-02-23T20:32:38.381Z,22.93
2019-02-23T20:35:06.761Z,24.30
2019-02-23T20:37:34.651Z,24.97
2019-02-23T20:40:02.501Z,21.37
2019-02-23T20:42:30.367Z,21.50
2019-02-23T20:45:00.720Z,19.83
2019-02-23T20:47:28.607Z,21.77
2019-02-23T20:49:56.688Z,21.97
2019-02-23T20:52:24.508Z,20.03
2019-02-23T20:54:52.479Z,21.13
2019-02-23T20:57:20.571Z,23.77
2019-02-23T20:59:48.331Z,19.37
2019-02-23T21:02:16.259Z,20.43
2019-02-23T21:04:44.082Z,20.40
2019-02-23T21:07:11.856Z,21.87
2019-02-23T21:09:39.841Z,21.87
2019-02-23T21:12:07.621Z,20.03
2019-02-23T21:14:35.446Z,21.33
2019-02-23T21:17:03.112Z,21.93
2019-02-23T21:19:30.951Z,21.70
2019-02-23T21:21:58.596Z,18.13
2019-02-23T21:24:26.576Z,22.90
2019-02-23T21:26:54.286Z,21.10
2019-02-23T21:34:38.915Z,21.33
2019-02-23T21:37:06.751Z,21.77
2019-02-23T21:45:52.190Z,21.23
2019-02-23T21:48:17.893Z,21.30
2019-02-23T21:50:45.666Z,21.73
2019-02-23T22:00:50.412Z,21.57
2019-02-23T22:03:20.256Z,17.87
2019-02-23T22:05:48.190Z,20.33
2019-02-23T22:09:31.091Z,24.50
2019-02-23T22:12:07.751Z,23.03
2019-02-23T22:14:35.326Z,23.43
2019-02-23T22:17:02.937Z,22.07
2019-02-23T22:19:30.588Z,20.27
2019-02-23T22:21:58.333Z,19.33
2019-02-23T22:28:09.652Z,20.57
2019-02-23T23:24:38.840Z,20.23
2019-02-23T23:33:55.662Z,22.63
2019-02-23T23:39:34.530Z,20.63
2019-02-23T23:42:05.025Z,21.10
2019-02-23T23:44:34.782Z,23.07
2019-02-23T23:47:07.012Z,24.80
2019-02-23T23:54:17.093Z,22.53
